createdAt,value
2023-05-19T00:00:59.082Z,99188.00
2023-05-19T00:03:27.658Z,99185.00
2023-05-19T00:05:57.428Z,99195.00
2023-05-19T00:08:25.621Z,99186.00
2023-05-19T00:10:54.308Z,99189.00
2023-05-19T00:13:22.525Z,99188.00
2023-05-19T00:15:51.160Z,99185.00
2023-05-19T00:18:20.678Z,99181.00
2023-05-19T00:20:48.782Z,99174.00
2023-05-19T00:23:18.245Z,99176.00
2023-05-19T00:25:46.374Z,99170.00
2023-05-19T00:28:14.516Z,99177.00
2023-05-19T00:30:42.607Z,99176.00
2023-05-19T00:33:10.741Z,99175.00
2023-05-19T00:35:40.678Z,99179.00
2023-05-19T00:38:08.794Z,99174.00
2023-05-19T00:40:38.317Z,99185.00
2023-05-19T00:43:08.428Z,99172.00
2023-05-19T00:45:37.797Z,99180.00
2023-05-19T00:48:05.922Z,99176.00
2023-05-19T00:50:34.388Z,99173.00
2023-05-19T00:53:02.690Z,99179.00
2023-05-19T00:55:30.808Z,99174.00
2023-05-19T00:58:00.282Z,99163.00
2023-05-19T01:00:30.336Z,99162.00
2023-05-19T01:02:58.914Z,99165.00
2023-05-19T01:05:27.111Z,99169.00
2023-05-19T01:07:56.527Z,99173.00
2023-05-19T01:10:24.771Z,99177.00
2023-05-19T01:12:52.890Z,99171.00
2023-05-19T01:15:22.380Z,99168.00
2023-05-19T01:17:54.631Z,99159.00
2023-05-19T01:20:25.944Z,99159.00
2023-05-19T01:23:24.651Z,99168.00
2023-05-19T01:26:30.391Z,99157.00
2023-05-19T01:29:08.819Z,99159.00
2023-05-19T01:31:38.640Z,99158.00
2023-05-19T01:34:06.751Z,99161.00
2023-05-19T01:36:34.953Z,99159.00
2023-05-19T01:39:03.008Z,99164.00
2023-05-19T01:41:32.540Z,99159.00
2023-05-19T01:44:00.592Z,99167.00
2023-05-19T01:46:28.721Z,99162.00
2023-05-19T01:48:58.212Z,99156.00
2023-05-19T01:51:26.263Z,99160.00
2023-05-19T01:53:54.326Z,99160.00
2023-05-19T01:56:26.674Z,99156.00
2023-05-19T01:58:57.546Z,99161.00
2023-05-19T02:01:32.076Z,99153.00
2023-05-19T02:04:10.561Z,99153.00
2023-05-19T02:06:42.008Z,99152.00
2023-05-19T02:09:13.561Z,99151.00
2023-05-19T02:11:43.248Z,99143.00
2023-05-19T02:14:14.880Z,99135.00
2023-05-19T02:16:43.384Z,99143.00
2023-05-19T02:19:23.395Z,99138.00
2023-05-19T02:21:51.860Z,99143.00
2023-05-19T02:24:20.223Z,99145.00
2023-05-19T02:26:48.543Z,99142.00
2023-05-19T02:29:16.670Z,99142.00
2023-05-19T02:31:44.831Z,99145.00
2023-05-19T02:34:13.066Z,99143.00
2023-05-19T02:36:43.450Z,99146.00
2023-05-19T02:39:12.028Z,99135.00
2023-05-19T02:41:40.172Z,99132.00
2023-05-19T02:44:08.284Z,99133.00
2023-05-19T02:46:37.196Z,99139.00
2023-05-19T02:49:05.353Z,99129.00
2023-05-19T02:51:33.997Z,99132.00
2023-05-19T02:54:03.572Z,99130.00
2023-05-19T02:56:31.708Z,99133.00
2023-05-19T02:58:59.820Z,99134.00
2023-05-19T03:01:27.937Z,99127.00
2023-05-19T03:03:56.112Z,99126.00
2023-05-19T03:06:24.520Z,99123.00
2023-05-19T03:08:52.680Z,99131.00
2023-05-19T03:11:23.314Z,99131.00
2023-05-19T03:13:51.425Z,99133.00
2023-05-19T03:16:19.679Z,99132.00
2023-05-19T03:18:47.984Z,99127.00
2023-05-19T03:21:16.378Z,99126.00
2023-05-19T03:23:44.516Z,99124.00
2023-05-19T03:26:12.634Z,99124.00
2023-05-19T03:28:42.177Z,99121.00
2023-05-19T03:31:10.519Z,99122.00
2023-05-19T03:33:38.673Z,99124.00
2023-05-19T03:36:07.872Z,99131.00
2023-05-19T03:38:36.446Z,99134.00
2023-05-19T03:41:05.032Z,99141.00
2023-05-19T03:43:33.170Z,99138.00
2023-05-19T03:46:02.724Z,99144.00
2023-05-19T03:48:30.878Z,99141.00
2023-05-19T03:50:59.290Z,99148.00
2023-05-19T03:53:27.441Z,99139.00
2023-05-19T03:55:56.699Z,99155.00
2023-05-19T03:58:24.817Z,99147.00
2023-05-19T04:00:52.964Z,99148.00
2023-05-19T04:03:22.660Z,99147.00
2023-05-19T04:05:52.907Z,99151.00
2023-05-19T04:08:21.092Z,99147.00
2023-05-19T04:10:49.217Z,99147.00
2023-05-19T04:13:17.317Z,99152.00
2023-05-19T04:15:45.709Z,99147.00
2023-05-19T04:18:14.034Z,99142.00
2023-05-19T04:20:43.534Z,99148.00
2023-05-19T04:23:11.695Z,99144.00
2023-05-19T04:25:40.957Z,99139.00
2023-05-19T04:28:12.966Z,99139.00
2023-05-19T04:30:42.644Z,99146.00
2023-05-19T04:33:10.875Z,99150.00
2023-05-19T04:35:39.761Z,99148.00
2023-05-19T04:38:10.079Z,99151.00
2023-05-19T04:40:38.190Z,99153.00
2023-05-19T04:43:07.399Z,99155.00
2023-05-19T04:45:37.745Z,99152.00
2023-05-19T04:48:06.359Z,99159.00
2023-05-19T04:50:35.492Z,99160.00
2023-05-19T04:53:03.654Z,99162.00
2023-05-19T04:55:33.142Z,99135.00
2023-05-19T04:58:01.422Z,99157.00
2023-05-19T05:00:29.926Z,99160.00
2023-05-19T05:02:58.601Z,99161.00
2023-05-19T05:05:26.860Z,99149.00
2023-05-19T05:07:56.397Z,99147.00
2023-05-19T05:10:24.707Z,99147.00
2023-05-19T05:12:58.275Z,99151.00
2023-05-19T05:15:28.894Z,99152.00
2023-05-19T05:17:57.809Z,99145.00
2023-05-19T05:20:26.938Z,99146.00
2023-05-19T05:22:55.948Z,99147.00
2023-05-19T05:25:24.964Z,99140.00
2023-05-19T05:27:53.098Z,99132.00
2023-05-19T05:30:22.630Z,99131.00
2023-05-19T05:32:50.965Z,99135.00
2023-05-19T05:35:19.349Z,99136.00
2023-05-19T05:37:47.464Z,99138.00
2023-05-19T05:40:15.725Z,99135.00
2023-05-19T05:42:44.707Z,99141.00
2023-05-19T05:45:12.926Z,99140.00
2023-05-19T05:47:43.075Z,99136.00
2023-05-19T05:50:12.208Z,99138.00
2023-05-19T05:52:40.351Z,99130.00
2023-05-19T05:55:09.815Z,99133.00
2023-05-19T05:57:37.915Z,99136.00
2023-05-19T06:00:10.497Z,99128.00
2023-05-19T06:02:39.045Z,99136.00
2023-05-19T06:05:12.438Z,99133.00
2023-05-19T06:07:40.788Z,99135.00
2023-05-19T06:10:10.016Z,99125.00
2023-05-19T06:12:40.112Z,99132.00
2023-05-19T06:15:09.056Z,99137.00
2023-05-19T06:17:37.218Z,99135.00
2023-05-19T06:20:06.488Z,99139.00
2023-05-19T06:22:35.995Z,99135.00
2023-05-19T06:25:04.396Z,99142.00
2023-05-19T06:27:34.634Z,99136.00
2023-05-19T06:30:03.012Z,99132.00
2023-05-19T06:32:31.200Z,99134.00
2023-05-19T06:34:59.537Z,99138.00
2023-05-19T06:37:27.605Z,99143.00
2023-05-19T06:39:57.221Z,99147.00
2023-05-19T06:42:25.569Z,99147.00
2023-05-19T06:44:53.943Z,99149.00
2023-05-19T06:47:22.067Z,99140.00
2023-05-19T06:49:55.316Z,99141.00
2023-05-19T06:52:23.835Z,99149.00
2023-05-19T06:54:51.980Z,99144.00
2023-05-19T06:57:21.665Z,99142.00
2023-05-19T06:59:49.784Z,99143.00
2023-05-19T07:02:17.942Z,99135.00
2023-05-19T07:04:46.203Z,99144.00
2023-05-19T07:07:14.362Z,99140.00
2023-05-19T07:09:42.460Z,99137.00
2023-05-19T07:12:10.606Z,99138.00
2023-05-19T07:14:40.095Z,99133.00
2023-05-19T07:17:08.196Z,99136.00
2023-05-19T07:19:36.317Z,99126.00
2023-05-19T07:22:04.625Z,99123.00
2023-05-19T07:24:32.740Z,99135.00
2023-05-19T07:27:00.893Z,99136.00
2023-05-19T07:29:29.110Z,99130.00
2023-05-19T07:31:58.722Z,99125.00
2023-05-19T07:34:26.857Z,99121.00
2023-05-19T07:36:55.083Z,99117.00
2023-05-19T07:39:25.328Z,99123.00
2023-05-19T07:41:55.760Z,99126.00
2023-05-19T07:44:23.872Z,99134.00
2023-05-19T07:46:52.030Z,99135.00
2023-05-19T07:49:21.558Z,99125.00
2023-05-19T07:51:49.697Z,99121.00
2023-05-19T07:54:18.394Z,99116.00
2023-05-19T07:56:47.198Z,99109.00
2023-05-19T07:59:15.740Z,99114.00
2023-05-19T08:01:43.882Z,99114.00
2023-05-19T08:04:13.175Z,99109.00
2023-05-19T08:06:44.569Z,99116.00
2023-05-19T08:09:13.087Z,99106.00
2023-05-19T08:11:41.239Z,99112.00
2023-05-19T08:14:09.361Z,99105.00
2023-05-19T08:16:37.536Z,99098.00
2023-05-19T08:19:07.502Z,99101.00
2023-05-19T08:21:35.759Z,99094.00
2023-05-19T08:24:05.522Z,99088.00
2023-05-19T08:26:35.057Z,99079.00
2023-05-19T08:29:04.552Z,99082.00
2023-05-19T08:31:32.762Z,99081.00
2023-05-19T08:34:00.976Z,99070.00
2023-05-19T08:36:29.487Z,99073.00
2023-05-19T08:38:57.587Z,99072.00
2023-05-19T08:41:27.141Z,99073.00
2023-05-19T08:43:55.281Z,99074.00
2023-05-19T08:46:24.134Z,99064.00
2023-05-19T08:48:53.599Z,99061.00
2023-05-19T08:51:24.802Z,99055.00
2023-05-19T08:53:52.979Z,99060.00
2023-05-19T08:56:22.472Z,99052.00
2023-05-19T08:58:52.258Z,99050.00
2023-05-19T09:01:21.192Z,99057.00
2023-05-19T09:03:50.294Z,99051.00
2023-05-19T09:06:18.823Z,99044.00
2023-05-19T09:08:47.148Z,99036.00
2023-05-19T09:11:15.346Z,99038.00
2023-05-19T09:13:43.851Z,99029.00
2023-05-19T09:16:13.759Z,99027.00
2023-05-19T09:18:42.617Z,99025.00
2023-05-19T09:21:11.346Z,99015.00
2023-05-19T09:23:39.581Z,99017.00
2023-05-19T09:26:08.349Z,99014.00
2023-05-19T09:28:37.950Z,99009.00
2023-05-19T09:31:06.967Z,99017.00
2023-05-19T09:33:37.330Z,99012.00
2023-05-19T09:36:08.347Z,99011.00
2023-05-19T09:38:37.438Z,99015.00
2023-05-19T09:41:06.039Z,99025.00
2023-05-19T09:43:34.892Z,99016.00
2023-05-19T09:46:05.504Z,99010.00
2023-05-19T09:48:34.677Z,99018.00
2023-05-19T09:51:05.274Z,99015.00
2023-05-19T09:53:34.086Z,99009.00
2023-05-19T09:56:02.535Z,99006.00
2023-05-19T09:58:34.734Z,99009.00
2023-05-19T10:01:03.135Z,99003.00
2023-05-19T10:03:31.733Z,99011.00
2023-05-19T10:05:59.836Z,99001.00
2023-05-19T10:08:30.741Z,99019.00
2023-05-19T10:10:59.101Z,99012.00
2023-05-19T10:13:27.268Z,99007.00
2023-05-19T10:15:59.254Z,99004.00
2023-05-19T10:18:29.578Z,99008.00
2023-05-19T10:20:58.744Z,99002.00
2023-05-19T10:23:27.051Z,98996.00
2023-05-19T10:25:57.738Z,99000.00
2023-05-19T10:28:28.106Z,99000.00
2023-05-19T10:30:58.089Z,98994.00
2023-05-19T10:33:30.264Z,98995.00
2023-05-19T10:36:09.265Z,98999.00
2023-05-19T10:38:43.101Z,98991.00
2023-05-19T10:41:25.330Z,98988.00
2023-05-19T10:43:56.275Z,98976.00
2023-05-19T10:46:27.609Z,98980.00
2023-05-19T10:48:55.889Z,98980.00
2023-05-19T10:51:29.984Z,98980.00
2023-05-19T10:53:58.936Z,98976.00
2023-05-19T10:56:34.036Z,98961.00
2023-05-19T10:59:02.329Z,98960.00
2023-05-19T11:01:33.989Z,98967.00
2023-05-19T11:04:06.860Z,98965.00
2023-05-19T11:06:35.824Z,98963.00
2023-05-19T11:09:14.208Z,98959.00
2023-05-19T11:11:51.797Z,98952.00
2023-05-19T11:14:20.992Z,98958.00
2023-05-19T11:16:49.531Z,98951.00
2023-05-19T11:19:21.498Z,98952.00
2023-05-19T11:21:50.849Z,98955.00
2023-05-19T11:24:37.922Z,98949.00
2023-05-19T11:27:26.542Z,98944.00
2023-05-19T11:29:55.063Z,98946.00
2023-05-19T11:32:23.844Z,98948.00
2023-05-19T11:34:52.043Z,98955.00
2023-05-19T11:37:20.212Z,98941.00
2023-05-19T11:39:48.561Z,98942.00
2023-05-19T11:42:16.818Z,98934.00
2023-05-19T11:44:46.860Z,98943.00
2023-05-19T11:47:17.654Z,98938.00
2023-05-19T11:49:45.959Z,98941.00
2023-05-19T11:52:14.055Z,98928.00
2023-05-19T11:54:43.010Z,98931.00
2023-05-19T11:57:11.706Z,98923.00
2023-05-19T11:59:43.943Z,98925.00
2023-05-19T12:02:18.938Z,98927.00
2023-05-19T12:04:47.183Z,98927.00
2023-05-19T12:07:17.676Z,98925.00
2023-05-19T12:09:47.026Z,98923.00
2023-05-19T12:12:16.003Z,98919.00
2023-05-19T12:14:44.165Z,98920.00
2023-05-19T12:17:13.507Z,98924.00
2023-05-19T12:19:44.568Z,98906.00
2023-05-19T12:22:12.853Z,98926.00
2023-05-19T12:24:41.894Z,98911.00
2023-05-19T12:27:13.741Z,98906.00
2023-05-19T12:29:41.949Z,98913.00
2023-05-19T12:32:10.346Z,98913.00
2023-05-19T12:34:39.174Z,98902.00
2023-05-19T12:37:08.690Z,98888.00
2023-05-19T12:39:36.810Z,98891.00
2023-05-19T12:42:11.421Z,98888.00
2023-05-19T12:44:40.572Z,98898.00
2023-05-19T12:47:09.169Z,98877.00
2023-05-19T12:49:37.370Z,98883.00
2023-05-19T12:52:11.798Z,98887.00
2023-05-19T12:54:42.282Z,98879.00
2023-05-19T12:57:11.877Z,98885.00
2023-05-19T12:59:40.616Z,98875.00
2023-05-19T13:02:08.936Z,98867.00
2023-05-19T13:04:37.236Z,98874.00
2023-05-19T13:07:06.025Z,98874.00
2023-05-19T13:09:36.373Z,98875.00
2023-05-19T13:12:06.829Z,98872.00
2023-05-19T13:14:34.988Z,98866.00
2023-05-19T13:17:03.620Z,98868.00
2023-05-19T13:19:32.607Z,98874.00
2023-05-19T13:22:00.769Z,98875.00
2023-05-19T13:24:28.921Z,98875.00
2023-05-19T13:26:57.042Z,98872.00
2023-05-19T13:29:28.268Z,98865.00
2023-05-19T13:31:56.376Z,98873.00
2023-05-19T13:34:25.468Z,98871.00
2023-05-19T13:36:53.781Z,98867.00
2023-05-19T13:39:21.988Z,98865.00
2023-05-19T13:41:50.575Z,98863.00
2023-05-19T13:44:18.778Z,98863.00
2023-05-19T13:46:49.847Z,98867.00
2023-05-19T13:49:19.720Z,98858.00
2023-05-19T13:51:47.880Z,98849.00
2023-05-19T13:54:16.226Z,98857.00
2023-05-19T13:56:46.054Z,98854.00
2023-05-19T13:59:14.183Z,98853.00
2023-05-19T14:01:42.405Z,98844.00
2023-05-19T14:04:12.275Z,98838.00
2023-05-19T14:06:40.522Z,98840.00
2023-05-19T14:09:08.919Z,98846.00
2023-05-19T14:11:37.063Z,98846.00
2023-05-19T14:14:05.327Z,98847.00
2023-05-19T14:16:38.194Z,98845.00
2023-05-19T14:19:06.677Z,98838.00
2023-05-19T14:21:36.927Z,98830.00
2023-05-19T14:24:05.507Z,98824.00
2023-05-19T14:26:33.629Z,98826.00
2023-05-19T14:31:30.372Z,98827.00
2023-05-19T14:33:58.560Z,98831.00
2023-05-19T14:36:26.831Z,98834.00
2023-05-19T14:38:57.611Z,98842.00
2023-05-19T14:41:26.938Z,98836.00
2023-05-19T14:43:55.049Z,98828.00
2023-05-19T14:46:23.204Z,98844.00
2023-05-19T14:48:51.369Z,98830.00
2023-05-19T14:51:19.482Z,98835.00
2023-05-19T14:53:49.138Z,98829.00
2023-05-19T14:56:18.688Z,98838.00
2023-05-19T14:58:46.836Z,98837.00
2023-05-19T15:01:15.161Z,98828.00
2023-05-19T15:03:43.495Z,98830.00
2023-05-19T15:06:11.678Z,98826.00
2023-05-19T15:08:42.945Z,98826.00
2023-05-19T15:11:11.088Z,98826.00
2023-05-19T15:13:40.652Z,98826.00
2023-05-19T15:16:17.684Z,98825.00
2023-05-19T15:18:46.638Z,98844.00
2023-05-19T15:21:14.862Z,98826.00
2023-05-19T15:23:43.011Z,98839.00
2023-05-19T15:26:14.455Z,98825.00
2023-05-19T15:28:48.923Z,98815.00
2023-05-19T15:31:25.282Z,98826.00
2023-05-19T15:34:00.650Z,98829.00
2023-05-19T15:36:35.555Z,98814.00
2023-05-19T15:39:11.023Z,98824.00
2023-05-19T15:41:46.296Z,98829.00
2023-05-19T15:44:20.522Z,98818.00
2023-05-19T15:46:55.084Z,98839.00
2023-05-19T15:49:33.668Z,98824.00
2023-05-19T15:52:05.818Z,98826.00
2023-05-19T15:54:41.578Z,98827.00
2023-05-19T15:57:16.141Z,98825.00
2023-05-19T15:59:52.589Z,98823.00
2023-05-19T16:02:22.292Z,98822.00
2023-05-19T16:05:01.114Z,98821.00
2023-05-19T16:07:32.186Z,98820.00
2023-05-19T16:10:10.769Z,98812.00
2023-05-19T16:12:42.121Z,98810.00
2023-05-19T16:15:19.849Z,98806.00
2023-05-19T16:17:51.833Z,98798.00
2023-05-19T16:20:33.040Z,98816.00
2023-05-19T16:23:04.849Z,98819.00
2023-05-19T16:25:37.103Z,98801.00
2023-05-19T16:28:17.539Z,98806.00
2023-05-19T16:30:59.056Z,98804.00
2023-05-19T16:33:30.977Z,98804.00
2023-05-19T16:36:15.590Z,98811.00
2023-05-19T16:39:03.353Z,98800.00
2023-05-19T16:41:42.466Z,98799.00
2023-05-19T16:44:26.265Z,98800.00
2023-05-19T16:47:05.190Z,98806.00
2023-05-19T16:49:39.123Z,98804.00
2023-05-19T16:52:17.461Z,98809.00
2023-05-19T16:54:50.932Z,98805.00
2023-05-19T17:00:21.459Z,98791.00
2023-05-19T17:02:51.103Z,98784.00
2023-05-19T17:05:19.445Z,98797.00
2023-05-19T17:07:47.759Z,98791.00
2023-05-19T17:10:15.995Z,98781.00
2023-05-19T17:12:44.311Z,98783.00
2023-05-19T17:15:12.838Z,98787.00
2023-05-19T17:17:41.178Z,98783.00
2023-05-19T17:20:12.126Z,98773.00
2023-05-19T17:22:40.433Z,98781.00
2023-05-19T17:25:09.689Z,98770.00
2023-05-19T17:27:37.850Z,98776.00
2023-05-19T17:30:07.081Z,98783.00
2023-05-19T17:32:38.667Z,98777.00
2023-05-19T17:35:08.189Z,98780.00
2023-05-19T17:37:37.859Z,98773.00
2023-05-19T17:40:07.154Z,98778.00
2023-05-19T17:42:35.274Z,98779.00
2023-05-19T17:45:07.513Z,98776.00
2023-05-19T17:47:35.725Z,98778.00
2023-05-19T17:50:03.919Z,98781.00
2023-05-19T17:52:33.019Z,98777.00
2023-05-19T17:55:03.222Z,98798.00
2023-05-19T17:57:32.102Z,98788.00
2023-05-19T18:00:01.377Z,98791.00
2023-05-19T18:02:30.227Z,98787.00
2023-05-19T18:04:58.929Z,98795.00
2023-05-19T18:07:27.157Z,98787.00
2023-05-19T18:09:55.898Z,98786.00
2023-05-19T18:12:25.446Z,98795.00
2023-05-19T18:14:53.609Z,98792.00
2023-05-19T18:17:21.770Z,98796.00
2023-05-19T18:19:50.057Z,98803.00
2023-05-19T18:22:18.325Z,98809.00
2023-05-19T18:24:46.674Z,98804.00
2023-05-19T18:27:14.975Z,98808.00
2023-05-19T18:29:44.962Z,98801.00
2023-05-19T18:32:14.640Z,98797.00
2023-05-19T18:34:42.925Z,98807.00
2023-05-19T18:37:12.788Z,98803.00
2023-05-19T18:39:40.919Z,98813.00
2023-05-19T18:42:09.212Z,98809.00
2023-05-19T18:44:37.342Z,98810.00
2023-05-19T18:47:06.946Z,98814.00
2023-05-19T18:49:35.090Z,98814.00
2023-05-19T18:52:13.249Z,98803.00
2023-05-19T18:54:53.449Z,98800.00
2023-05-19T18:57:22.678Z,98803.00
2023-05-19T18:59:52.006Z,98800.00
2023-05-19T19:02:35.237Z,98817.00
2023-05-19T19:05:10.180Z,98810.00
2023-05-19T19:07:47.274Z,98805.00
2023-05-19T19:10:21.310Z,98811.00
2023-05-19T19:12:51.083Z,98814.00
2023-05-19T19:15:26.425Z,98817.00
2023-05-19T19:18:06.196Z,98826.00
2023-05-19T19:20:39.996Z,98823.00
2023-05-19T19:23:19.010Z,98823.00
2023-05-19T19:25:59.446Z,98827.00
2023-05-19T19:28:30.913Z,98829.00
2023-05-19T19:31:07.248Z,98834.00
2023-05-19T19:33:43.937Z,98836.00
2023-05-19T19:36:19.755Z,98836.00
2023-05-19T19:39:01.290Z,98835.00
2023-05-19T19:41:30.592Z,98843.00
2023-05-19T19:44:06.243Z,98840.00
2023-05-19T19:46:35.718Z,98834.00
2023-05-19T19:49:09.104Z,98841.00
2023-05-19T19:51:38.807Z,98841.00
2023-05-19T19:54:10.929Z,98838.00
2023-05-19T19:56:46.115Z,98831.00
2023-05-19T19:59:21.965Z,98850.00
2023-05-19T20:01:56.176Z,98854.00
2023-05-19T20:04:39.118Z,98850.00
2023-05-19T20:07:20.489Z,98847.00
2023-05-19T20:10:01.760Z,98844.00
2023-05-19T20:12:36.455Z,98841.00
2023-05-19T20:15:17.558Z,98841.00
2023-05-19T20:17:47.004Z,98837.00
2023-05-19T20:20:23.274Z,98837.00
2023-05-19T20:22:55.189Z,98843.00
2023-05-19T20:25:35.325Z,98843.00
2023-05-19T20:28:07.869Z,98847.00
2023-05-19T20:30:39.161Z,98845.00
2023-05-19T20:33:12.240Z,98843.00
2023-05-19T20:35:48.900Z,98844.00
2023-05-19T20:38:21.195Z,98841.00
2023-05-19T20:40:50.493Z,98844.00
2023-05-19T20:43:28.934Z,98851.00
2023-05-19T20:46:01.793Z,98843.00
2023-05-19T20:48:33.836Z,98849.00
2023-05-19T20:51:16.467Z,98843.00
2023-05-19T20:53:54.643Z,98843.00
2023-05-19T20:56:28.167Z,98846.00
2023-05-19T20:59:01.113Z,98854.00
2023-05-19T21:01:34.567Z,98850.00
2023-05-19T21:04:08.059Z,98850.00
2023-05-19T21:06:43.803Z,98849.00
2023-05-19T21:09:15.147Z,98851.00
2023-05-19T21:11:48.290Z,98855.00
2023-05-19T21:14:20.361Z,98858.00
2023-05-19T21:17:05.193Z,98862.00
2023-05-19T21:19:40.288Z,98864.00
2023-05-19T21:22:16.722Z,98856.00
2023-05-19T21:24:52.029Z,98865.00
2023-05-19T21:27:21.473Z,98859.00
2023-05-19T21:29:57.529Z,98861.00
2023-05-19T21:32:37.903Z,98859.00
2023-05-19T21:35:13.847Z,98855.00
2023-05-19T21:37:51.292Z,98860.00
2023-05-19T21:40:34.672Z,98853.00
2023-05-19T21:43:08.821Z,98852.00
2023-05-19T21:45:39.572Z,98855.00
2023-05-19T21:48:17.384Z,98850.00
2023-05-19T21:50:54.897Z,98851.00
2023-05-19T21:53:37.809Z,98854.00
2023-05-19T21:56:14.493Z,98851.00
2023-05-19T21:58:50.813Z,98852.00
2023-05-19T22:01:27.987Z,98847.00
2023-05-19T22:04:09.883Z,98848.00
2023-05-19T22:07:06.810Z,98851.00
2023-05-19T22:09:43.970Z,98852.00
2023-05-19T22:12:30.071Z,98857.00
2023-05-19T22:15:17.645Z,98860.00
2023-05-19T22:17:47.684Z,98854.00
2023-05-19T22:20:20.365Z,98857.00
2023-05-19T22:23:10.399Z,98848.00
2023-05-19T22:25:48.989Z,98848.00
2023-05-19T22:28:28.824Z,98851.00
2023-05-19T22:31:03.350Z,98855.00
2023-05-19T22:33:44.059Z,98847.00
2023-05-19T22:36:26.619Z,98856.00
2023-05-19T22:39:05.368Z,98848.00
2023-05-19T22:41:42.143Z,98841.00
2023-05-19T22:44:16.532Z,98835.00
2023-05-19T22:46:51.275Z,98835.00
2023-05-19T22:49:32.870Z,98836.00
2023-05-19T22:52:09.441Z,98835.00
2023-05-19T22:54:43.332Z,98834.00
2023-05-19T22:57:17.575Z,98830.00
2023-05-19T22:59:51.740Z,98839.00
2023-05-19T23:02:30.721Z,98835.00
2023-05-19T23:05:22.020Z,98830.00
2023-05-19T23:07:54.899Z,98836.00
2023-05-19T23:10:25.124Z,98828.00
2023-05-19T23:12:58.255Z,98833.00
2023-05-19T23:15:30.775Z,98830.00
2023-05-19T23:18:07.718Z,98832.00
2023-05-19T23:20:44.858Z,98832.00
2023-05-19T23:23:19.692Z,98835.00
2023-05-19T23:26:13.673Z,98830.00
2023-05-19T23:28:57.144Z,98826.00
2023-05-19T23:31:36.309Z,98830.00
2023-05-19T23:34:11.614Z,98823.00
2023-05-19T23:36:51.032Z,98815.00
2023-05-19T23:39:28.557Z,98820.00
2023-05-19T23:42:05.130Z,98803.00
2023-05-19T23:44:40.537Z,98823.00
2023-05-19T23:47:23.414Z,98826.00
2023-05-19T23:49:59.635Z,98823.00
2023-05-19T23:52:44.560Z,98827.00
2023-05-19T23:55:19.615Z,98812.00
2023-05-19T23:58:01.657Z,98810.00
